sensor_id;sensor_type;location;lat;lon;timestamp;pressure;altitude;pressure_sealevel;temperature;humidity
71970;BME280;59838;52.152;5.436;2023-02-17T00:01:25;102022.50;;;9.31;100.00
71970;BME280;59838;52.152;5.436;2023-02-17T00:03:53;102022.50;;;9.31;100.00
71970;BME280;59838;52.152;5.436;2023-02-17T00:06:22;102024.09;;;9.32;100.00
71970;BME280;59838;52.152;5.436;2023-02-17T00:08:49;102023.28;;;9.32;100.00
71970;BME280;59838;52.152;5.436;2023-02-17T00:11:17;102025.09;;;9.31;100.00
71970;BME280;59838;52.152;5.436;2023-02-17T00:13:44;102017.31;;;9.31;100.00
71970;BME280;59838;52.152;5.436;2023-02-17T00:16:19;102018.91;;;9.32;100.00
71970;BME280;59838;52.152;5.436;2023-02-17T00:18:47;102012.94;;;9.32;100.00
71970;BME280;59838;52.152;5.436;2023-02-17T00:21:19;102012.13;;;9.31;100.00
71970;BME280;59838;52.152;5.436;2023-02-17T00:23:47;102011.13;;;9.32;100.00
71970;BME280;59838;52.152;5.436;2023-02-17T00:26:14;102007.75;;;9.32;100.00
71970;BME280;59838;52.152;5.436;2023-02-17T00:28:42;102011.97;;;9.33;100.00
71970;BME280;59838;52.152;5.436;2023-02-17T00:31:10;102008.25;;;9.36;100.00
71970;BME280;59838;52.152;5.436;2023-02-17T00:33:38;102009.91;;;9.37;100.00
71970;BME280;59838;52.152;5.436;2023-02-17T00:36:06;102003.88;;;9.36;100.00
71970;BME280;59838;52.152;5.436;2023-02-17T00:38:34;102006.47;;;9.36;100.00
71970;BME280;59838;52.152;5.436;2023-02-17T00:41:00;102009.06;;;9.36;100.00
71970;BME280;59838;52.152;5.436;2023-02-17T00:43:26;102003.88;;;9.36;100.00
71970;BME280;59838;52.152;5.436;2023-02-17T00:45:54;102001.97;;;9.38;100.00
71970;BME280;59838;52.152;5.436;2023-02-17T00:48:21;101989.16;;;9.37;100.00
71970;BME280;59838;52.152;5.436;2023-02-17T00:50:48;101994.34;;;9.37;100.00
71970;BME280;59838;52.152;5.436;2023-02-17T00:53:14;101997.75;;;9.37;100.00
71970;BME280;59838;52.152;5.436;2023-02-17T00:55:41;101994.34;;;9.37;100.00
71970;BME280;59838;52.152;5.436;2023-02-17T00:58:07;101986.41;;;9.38;100.00
71970;BME280;59838;52.152;5.436;2023-02-17T01:00:34;101998.53;;;9.38;100.00
71970;BME280;59838;52.152;5.436;2023-02-17T01:03:00;101989.16;;;9.37;100.00
71970;BME280;59838;52.152;5.436;2023-02-17T01:05:26;101998.53;;;9.38;100.00
71970;BME280;59838;52.152;5.436;2023-02-17T01:07:54;101997.88;;;9.36;100.00
71970;BME280;59838;52.152;5.436;2023-02-17T01:10:20;101992.69;;;9.36;100.00
71970;BME280;59838;52.152;5.436;2023-02-17T01:12:47;101980.72;;;9.35;100.00
71970;BME280;59838;52.152;5.436;2023-02-17T01:15:14;101988.63;;;9.33;100.00
71970;BME280;59838;52.152;5.436;2023-02-17T01:17:40;101987.94;;;9.31;100.00
71970;BME280;59838;52.152;5.436;2023-02-17T01:20:07;101993.28;;;9.29;100.00
71970;BME280;59838;52.152;5.436;2023-02-17T01:22:34;102002.03;;;9.28;100.00
71970;BME280;59838;52.152;5.436;2023-02-17T01:25:03;102001.34;;;9.26;100.00
71970;BME280;59838;52.152;5.436;2023-02-17T01:27:29;102008.44;;;9.24;100.00
71970;BME280;59838;52.152;5.436;2023-02-17T01:29:56;102010.38;;;9.22;100.00
71970;BME280;59838;52.152;5.436;2023-02-17T01:32:22;102004.53;;;9.20;100.00
71970;BME280;59838;52.152;5.436;2023-02-17T01:34:48;101995.09;;;9.19;100.00
71970;BME280;59838;52.152;5.436;2023-02-17T01:37:15;101995.91;;;9.20;100.00
71970;BME280;59838;52.152;5.436;2023-02-17T01:39:41;102002.88;;;9.19;100.00
71970;BME280;59838;52.152;5.436;2023-02-17T01:42:15;101993.59;;;9.17;100.00
71970;BME280;59838;52.152;5.436;2023-02-17T01:47:53;102005.38;;;9.11;100.00
71970;BME280;59838;52.152;5.436;2023-02-17T01:50:29;101989.03;;;9.10;100.00
71970;BME280;59838;52.152;5.436;2023-02-17T01:52:57;102001.44;;;9.07;100.00
71970;BME280;59838;52.152;5.436;2023-02-17T01:55:26;101999.97;;;9.04;100.00
71970;BME280;59838;52.152;5.436;2023-02-17T01:57:57;102000.78;;;9.05;100.00
71970;BME280;59838;52.152;5.436;2023-02-17T02:00:25;102001.91;;;9.02;100.00
71970;BME280;59838;52.152;5.436;2023-02-17T02:02:54;102002.97;;;9.00;100.00
71970;BME280;59838;52.152;5.436;2023-02-17T02:05:21;101981.59;;;8.98;100.00
71970;BME280;59838;52.152;5.436;2023-02-17T02:07:48;101980.22;;;8.93;100.00
71970;BME280;59838;52.152;5.436;2023-02-17T02:10:16;101978.75;;;8.91;100.00
71970;BME280;59838;52.152;5.436;2023-02-17T02:12:43;101975.31;;;8.90;100.00
71970;BME280;59838;52.152;5.436;2023-02-17T02:15:19;101966.88;;;8.88;100.00
71970;BME280;59838;52.152;5.436;2023-02-17T02:34:23;101936.50;;;8.81;100.00
71970;BME280;59838;52.152;5.436;2023-02-17T02:37:11;101928.72;;;8.81;100.00
71970;BME280;59838;52.152;5.436;2023-02-17T02:39:43;101931.47;;;8.79;100.00
71970;BME280;59838;52.152;5.436;2023-02-17T02:42:13;101927.25;;;8.78;100.00
71970;BME280;59838;52.152;5.436;2023-02-17T02:44:41;101919.47;;;8.78;100.00
71970;BME280;59838;52.152;5.436;2023-02-17T02:47:42;101923.81;;;8.77;100.00
71970;BME280;59838;52.152;5.436;2023-02-17T02:50:11;101922.22;;;8.76;100.00
71970;BME280;59838;52.152;5.436;2023-02-17T02:52:59;101926.56;;;8.76;100.00
71970;BME280;59838;52.152;5.436;2023-02-17T02:58:18;101919.75;;;8.75;100.00
71970;BME280;59838;52.152;5.436;2023-02-17T03:01:06;101915.38;;;8.75;100.00
71970;BME280;59838;52.152;5.436;2023-02-17T03:06:21;101917.47;;;8.72;100.00
71970;BME280;59838;52.152;5.436;2023-02-17T03:08:54;101930.41;;;8.72;100.00
71970;BME280;59838;52.152;5.436;2023-02-17T03:11:23;101922.63;;;8.72;100.00
71970;BME280;59838;52.152;5.436;2023-02-17T03:14:06;101921.00;;;8.71;100.00
71970;BME280;59838;52.152;5.436;2023-02-17T03:16:34;101918.53;;;8.69;100.00
71970;BME280;59838;52.152;5.436;2023-02-17T03:19:01;101918.41;;;8.71;100.00
71970;BME280;59838;52.152;5.436;2023-02-17T03:21:50;101917.47;;;8.72;100.00
71970;BME280;59838;52.152;5.436;2023-02-17T03:24:18;101898.34;;;8.73;100.00
71970;BME280;59838;52.152;5.436;2023-02-17T03:26:45;101902.56;;;8.74;100.00
71970;BME280;59838;52.152;5.436;2023-02-17T03:29:11;101897.41;;;8.74;100.00
71970;BME280;59838;52.152;5.436;2023-02-17T03:31:38;101887.97;;;8.73;100.00
71970;BME280;59838;52.152;5.436;2023-02-17T03:34:05;101889.63;;;8.74;100.00
71970;BME280;59838;52.152;5.436;2023-02-17T03:36:31;101876.66;;;8.74;100.00
71970;BME280;59838;52.152;5.436;2023-02-17T03:38:58;101879.25;;;8.74;100.00
71970;BME280;59838;52.152;5.436;2023-02-17T03:41:25;101872.44;;;8.73;100.00
71970;BME280;59838;52.152;5.436;2023-02-17T03:43:51;101871.47;;;8.74;100.00
71970;BME280;59838;52.152;5.436;2023-02-17T03:46:18;101861.94;;;8.74;100.00
71970;BME280;59838;52.152;5.436;2023-02-17T03:48:45;101874.75;;;8.76;100.00
71970;BME280;59838;52.152;5.436;2023-02-17T03:51:22;101866.97;;;8.76;100.00
71970;BME280;59838;52.152;5.436;2023-02-17T03:53:50;101870.25;;;8.78;100.00
71970;BME280;59838;52.152;5.436;2023-02-17T03:56:17;101867.50;;;8.80;100.00
71970;BME280;59838;52.152;5.436;2023-02-17T03:58:44;101867.34;;;8.81;100.00
71970;BME280;59838;52.152;5.436;2023-02-17T04:01:11;101858.75;;;8.81;100.00
71970;BME280;59838;52.152;5.436;2023-02-17T04:03:38;101862.00;;;8.83;100.00
71970;BME280;59838;52.152;5.436;2023-02-17T04:06:06;101852.47;;;8.83;100.00
71970;BME280;59838;52.152;5.436;2023-02-17T04:08:33;101842.94;;;8.84;100.00
71970;BME280;59838;52.152;5.436;2023-02-17T04:11:01;101851.22;;;8.87;100.00
71970;BME280;59838;52.152;5.436;2023-02-17T04:13:28;101854.50;;;8.89;100.00
71970;BME280;59838;52.152;5.436;2023-02-17T04:15:54;101862.94;;;8.91;100.00
71970;BME280;59838;52.152;5.436;2023-02-17T04:18:21;101862.94;;;8.91;100.00
71970;BME280;59838;52.152;5.436;2023-02-17T04:20:49;101865.25;;;8.94;100.00
71970;BME280;59838;52.152;5.436;2023-02-17T04:23:17;101863.31;;;8.96;100.00
71970;BME280;59838;52.152;5.436;2023-02-17T04:25:43;101861.38;;;8.99;100.00
71970;BME280;59838;52.152;5.436;2023-02-17T04:28:11;101856.19;;;8.99;100.00
71970;BME280;59838;52.152;5.436;2023-02-17T04:30:38;101851.84;;;8.99;100.00
71970;BME280;59838;52.152;5.436;2023-02-17T04:33:04;101863.81;;;9.00;100.00
71970;BME280;59838;52.152;5.436;2023-02-17T04:35:31;101860.28;;;9.01;100.00
71970;BME280;59838;52.152;5.436;2023-02-17T04:37:57;101857.69;;;9.01;100.00
71970;BME280;59838;52.152;5.436;2023-02-17T04:40:24;101836.81;;;9.03;100.00
71970;BME280;59838;52.152;5.436;2023-02-17T04:42:50;101822.88;;;9.04;100.00
71970;BME280;59838;52.152;5.436;2023-02-17T04:45:17;101824.34;;;9.06;100.00
71970;BME280;59838;52.152;5.436;2023-02-17T04:47:43;101839.75;;;9.08;100.00
71970;BME280;59838;52.152;5.436;2023-02-17T04:50:10;101839.63;;;9.09;100.00
71970;BME280;59838;52.152;5.436;2023-02-17T04:52:37;101832.66;;;9.10;100.00
71970;BME280;59838;52.152;5.436;2023-02-17T04:55:04;101823.13;;;9.10;100.00
71970;BME280;59838;52.152;5.436;2023-02-17T04:57:31;101823.13;;;9.10;100.00
71970;BME280;59838;52.152;5.436;2023-02-17T04:59:58;101827.47;;;9.10;100.00
71970;BME280;59838;52.152;5.436;2023-02-17T05:02:24;101830.88;;;9.10;100.00
71970;BME280;59838;52.152;5.436;2023-02-17T05:04:52;101831.56;;;9.12;100.00
71970;BME280;59838;52.152;5.436;2023-02-17T05:07:19;101843.53;;;9.13;100.00
71970;BME280;59838;52.152;5.436;2023-02-17T05:09:46;101841.91;;;9.12;100.00
71970;BME280;59838;52.152;5.436;2023-02-17T05:12:12;101846.13;;;9.13;100.00
71970;BME280;59838;52.152;5.436;2023-02-17T05:14:39;101846.13;;;9.13;100.00
71970;BME280;59838;52.152;5.436;2023-02-17T05:17:05;101847.63;;;9.16;100.00
71970;BME280;59838;52.152;5.436;2023-02-17T05:19:32;101850.22;;;9.16;100.00
71970;BME280;59838;52.152;5.436;2023-02-17T05:21:58;101840.78;;;9.15;100.00
71970;BME280;59838;52.152;5.436;2023-02-17T05:24:25;101851.84;;;9.17;100.00
71970;BME280;59838;52.152;5.436;2023-02-17T05:26:51;101857.84;;;9.18;100.00
71970;BME280;59838;52.152;5.436;2023-02-17T05:29:18;101834.66;;;9.16;100.00
71970;BME280;59838;52.152;5.436;2023-02-17T05:31:44;101839.84;;;9.16;100.00
71970;BME280;59838;52.152;5.436;2023-02-17T05:34:11;101854.44;;;9.17;100.00
71970;BME280;59838;52.152;5.436;2023-02-17T05:36:38;101845.03;;;9.16;100.00
71970;BME280;59838;52.152;5.436;2023-02-17T05:39:04;101839.84;;;9.16;100.00
71970;BME280;59838;52.152;5.436;2023-02-17T05:41:31;101846.81;;;9.15;100.00
71970;BME280;59838;52.152;5.436;2023-02-17T05:43:57;101817.31;;;9.17;100.00
71970;BME280;59838;52.152;5.436;2023-02-17T05:46:23;101828.66;;;9.15;100.00
71970;BME280;59838;52.152;5.436;2023-02-17T05:48:50;101830.28;;;9.17;100.00
71970;BME280;59838;52.152;5.436;2023-02-17T05:51:16;101823.34;;;9.17;100.00
71970;BME280;59838;52.152;5.436;2023-02-17T05:53:43;101825.22;;;9.15;100.00
71970;BME280;59838;52.152;5.436;2023-02-17T05:56:10;101826.06;;;9.15;100.00
71970;BME280;59838;52.152;5.436;2023-02-17T05:58:36;101814.06;;;9.14;100.00
71970;BME280;59838;52.152;5.436;2023-02-17T06:01:10;101810.66;;;9.14;100.00
71970;BME280;59838;52.152;5.436;2023-02-17T06:03:37;101810.66;;;9.14;100.00
71970;BME280;59838;52.152;5.436;2023-02-17T06:06:04;101807.09;;;9.15;100.00
71970;BME280;59838;52.152;5.436;2023-02-17T06:08:32;101811.31;;;9.16;100.00
71970;BME280;59838;52.152;5.436;2023-02-17T06:10:58;101819.09;;;9.16;100.00
71970;BME280;59838;52.152;5.436;2023-02-17T06:13:25;101825.09;;;9.17;100.00
71970;BME280;59838;52.152;5.436;2023-02-17T06:15:51;101818.16;;;9.17;100.00
71970;BME280;59838;52.152;5.436;2023-02-17T06:18:18;101818.94;;;9.18;100.00
71970;BME280;59838;52.152;5.436;2023-02-17T06:20:45;101818.94;;;9.18;100.00
71970;BME280;59838;52.152;5.436;2023-02-17T06:23:11;101814.41;;;9.20;100.00
71970;BME280;59838;52.152;5.436;2023-02-17T06:25:38;101823.03;;;9.20;100.00
71970;BME280;59838;52.152;5.436;2023-02-17T06:28:04;101813.47;;;9.21;100.00
71970;BME280;59838;52.152;5.436;2023-02-17T06:30:30;101810.72;;;9.22;100.00
71970;BME280;59838;52.152;5.436;2023-02-17T06:32:57;101810.44;;;9.25;100.00
71970;BME280;59838;52.152;5.436;2023-02-17T06:35:24;101801.66;;;9.26;100.00
71970;BME280;59838;52.152;5.436;2023-02-17T06:37:51;101787.75;;;9.27;100.00
71970;BME280;59838;52.152;5.436;2023-02-17T06:40:17;101773.84;;;9.28;100.00
71970;BME280;59838;52.152;5.436;2023-02-17T06:42:44;101781.63;;;9.28;100.00
71970;BME280;59838;52.152;5.436;2023-02-17T06:45:10;101777.22;;;9.29;100.00
71970;BME280;59838;52.152;5.436;2023-02-17T06:47:37;101772.03;;;9.29;100.00
71970;BME280;59838;52.152;5.436;2023-02-17T06:50:04;101770.25;;;9.29;100.00
71970;BME280;59838;52.152;5.436;2023-02-17T06:52:30;101782.28;;;9.30;100.00
71970;BME280;59838;52.152;5.436;2023-02-17T06:54:57;101789.09;;;9.31;100.00
71970;BME280;59838;52.152;5.436;2023-02-17T06:57:23;101789.09;;;9.31;100.00
71970;BME280;59838;52.152;5.436;2023-02-17T06:59:50;101773.38;;;9.33;100.00
71970;BME280;59838;52.152;5.436;2023-02-17T07:02:16;101759.44;;;9.34;100.00
71970;BME280;59838;52.152;5.436;2023-02-17T07:04:43;101782.47;;;9.37;100.00
71970;BME280;59838;52.152;5.436;2023-02-17T07:07:10;101774.56;;;9.39;100.00
71970;BME280;59838;52.152;5.436;2023-02-17T07:09:37;101756.41;;;9.39;100.00
71970;BME280;59838;52.152;5.436;2023-02-17T07:12:04;101759.50;;;9.42;100.00
71970;BME280;59838;52.152;5.436;2023-02-17T07:14:31;101765.50;;;9.43;100.00
71970;BME280;59838;52.152;5.436;2023-02-17T07:16:59;101777.34;;;9.45;100.00
71970;BME280;59838;52.152;5.436;2023-02-17T07:19:25;101780.75;;;9.46;100.00
71970;BME280;59838;52.152;5.436;2023-02-17T07:21:52;101785.78;;;9.47;100.00
71970;BME280;59838;52.152;5.436;2023-02-17T07:24:18;101790.81;;;9.49;100.00
71970;BME280;59838;52.152;5.436;2023-02-17T07:26:45;101795.06;;;9.50;100.00
71970;BME280;59838;52.152;5.436;2023-02-17T07:29:11;101796.53;;;9.52;100.00
71970;BME280;59838;52.152;5.436;2023-02-17T07:31:38;101793.66;;;9.56;100.00
71970;BME280;59838;52.152;5.436;2023-02-17T07:34:04;101788.28;;;9.57;100.00
71970;BME280;59838;52.152;5.436;2023-02-17T07:36:31;101795.91;;;9.59;100.00
71970;BME280;59838;52.152;5.436;2023-02-17T07:38:57;101773.91;;;9.63;100.00
71970;BME280;59838;52.152;5.436;2023-02-17T07:41:24;101785.75;;;9.65;100.00
71970;BME280;59838;52.152;5.436;2023-02-17T07:43:54;101778.63;;;9.67;100.00
71970;BME280;59838;52.152;5.436;2023-02-17T07:46:22;101793.06;;;9.70;100.00
71970;BME280;59838;52.152;5.436;2023-02-17T07:48:48;101784.19;;;9.73;100.00
71970;BME280;59838;52.152;5.436;2023-02-17T07:51:17;101781.28;;;9.76;100.00
71970;BME280;59838;52.152;5.436;2023-02-17T07:53:44;101780.97;;;9.79;100.00
71970;BME280;59838;52.152;5.436;2023-02-17T07:56:14;101784.06;;;9.82;100.00
71970;BME280;59838;52.152;5.436;2023-02-17T07:58:42;101788.31;;;9.83;100.00
71970;BME280;59838;52.152;5.436;2023-02-17T08:01:11;101795.63;;;9.88;100.00
71970;BME280;59838;52.152;5.436;2023-02-17T08:03:39;101786.69;;;9.91;100.00
71970;BME280;59838;52.152;5.436;2023-02-17T08:06:10;101783.00;;;9.93;100.00
71970;BME280;59838;52.152;5.436;2023-02-17T08:08:37;101784.59;;;9.94;100.00
71970;BME280;59838;52.152;5.436;2023-02-17T08:11:22;101795.53;;;9.98;100.00
71970;BME280;59838;52.152;5.436;2023-02-17T08:14:10;101814.34;;;10.00;100.00
71970;BME280;59838;52.152;5.436;2023-02-17T08:16:38;101802.81;;;10.02;100.00
71970;BME280;59838;52.152;5.436;2023-02-17T08:19:05;101810.31;;;10.05;100.00
71970;BME280;59838;52.152;5.436;2023-02-17T08:21:33;101807.56;;;10.07;100.00
71970;BME280;59838;52.152;5.436;2023-02-17T08:24:00;101793.31;;;10.11;100.00
71970;BME280;59838;52.152;5.436;2023-02-17T08:26:26;101793.78;;;10.15;100.00
71970;BME280;59838;52.152;5.436;2023-02-17T08:28:54;101812.47;;;10.18;100.00
71970;BME280;59838;52.152;5.436;2023-02-17T08:33:47;101807.63;;;10.23;100.00
71970;BME280;59838;52.152;5.436;2023-02-17T08:36:14;101818.53;;;10.27;100.00
71970;BME280;59838;52.152;5.436;2023-02-17T08:38:41;101822.59;;;10.30;100.00
71970;BME280;59838;52.152;5.436;2023-02-17T08:41:12;101823.22;;;10.32;100.00
71970;BME280;59838;52.152;5.436;2023-02-17T08:43:40;101834.50;;;10.32;100.00
71970;BME280;59838;52.152;5.436;2023-02-17T08:46:08;101834.34;;;10.34;100.00
71970;BME280;59838;52.152;5.436;2023-02-17T08:48:35;101833.34;;;10.35;100.00
71970;BME280;59838;52.152;5.436;2023-02-17T08:51:03;101843.56;;;10.36;100.00
71970;BME280;59838;52.152;5.436;2023-02-17T08:53:30;101852.06;;;10.38;100.00
71970;BME280;59838;52.152;5.436;2023-02-17T08:55:57;101851.91;;;10.40;100.00
71970;BME280;59838;52.152;5.436;2023-02-17T08:58:24;101860.50;;;10.40;100.00
71970;BME280;59838;52.152;5.436;2023-02-17T09:00:50;101845.72;;;10.41;100.00
71970;BME280;59838;52.152;5.436;2023-02-17T09:03:17;101857.09;;;10.40;100.00
71970;BME280;59838;52.152;5.436;2023-02-17T09:05:43;101852.84;;;10.39;100.00
71970;BME280;59838;52.152;5.436;2023-02-17T09:08:10;101846.69;;;10.40;100.00
71970;BME280;59838;52.152;5.436;2023-02-17T09:10:37;101852.69;;;10.40;100.00
71970;BME280;59838;52.152;5.436;2023-02-17T09:13:04;101849.31;;;10.40;100.00
71970;BME280;59838;52.152;5.436;2023-02-17T09:15:30;101869.94;;;10.41;100.00
71970;BME280;59838;52.152;5.436;2023-02-17T09:17:57;101863.59;;;10.44;100.00
71970;BME280;59838;52.152;5.436;2023-02-17T09:20:23;101869.97;;;10.50;100.00
71970;BME280;59838;52.152;5.436;2023-02-17T09:22:51;101861.84;;;10.53;100.00
71970;BME280;59838;52.152;5.436;2023-02-17T09:25:18;101859.75;;;10.56;100.00
71970;BME280;59838;52.152;5.436;2023-02-17T09:27:44;101852.75;;;10.57;100.00
71970;BME280;59838;52.152;5.436;2023-02-17T09:30:11;101846.28;;;10.61;100.00
71970;BME280;59838;52.152;5.436;2023-02-17T09:32:40;101854.72;;;10.63;100.00
71970;BME280;59838;52.152;5.436;2023-02-17T09:35:10;101840.75;;;10.64;100.00
71970;BME280;59838;52.152;5.436;2023-02-17T09:37:37;101845.78;;;10.66;100.00
71970;BME280;59838;52.152;5.436;2023-02-17T09:40:04;101837.53;;;10.70;100.00
71970;BME280;59838;52.152;5.436;2023-02-17T09:42:38;101851.53;;;10.77;100.00
71970;BME280;59838;52.152;5.436;2023-02-17T09:45:09;101853.97;;;10.79;100.00
71970;BME280;59838;52.152;5.436;2023-02-17T09:47:47;101852.19;;;10.79;100.00
71970;BME280;59838;52.152;5.436;2023-02-17T09:50:40;101838.41;;;10.87;100.00
71970;BME280;59838;52.152;5.436;2023-02-17T09:53:16;101833.03;;;10.97;100.00
71970;BME280;59838;52.152;5.436;2023-02-17T09:55:47;101831.41;;;11.04;100.00
71970;BME280;59838;52.152;5.436;2023-02-17T09:58:19;101827.22;;;11.11;100.00
71970;BME280;59838;52.152;5.436;2023-02-17T10:00:52;101829.81;;;11.20;100.00
71970;BME280;59838;52.152;5.436;2023-02-17T10:03:33;101857.13;;;11.24;100.00
71970;BME280;59838;52.152;5.436;2023-02-17T10:11:51;101847.22;;;11.27;99.84
71970;BME280;59838;52.152;5.436;2023-02-17T10:16:59;101845.59;;;11.26;99.83
71970;BME280;59838;52.152;5.436;2023-02-17T10:19:31;101864.91;;;11.24;99.72
71970;BME280;59838;52.152;5.436;2023-02-17T10:22:15;101863.31;;;11.23;100.00
71970;BME280;59838;52.152;5.436;2023-02-17T10:24:42;101874.03;;;11.20;100.00
71970;BME280;59838;52.152;5.436;2023-02-17T10:27:36;101870.13;;;11.24;100.00
71970;BME280;59838;52.152;5.436;2023-02-17T10:30:22;101876.78;;;11.18;99.83
71970;BME280;59838;52.152;5.436;2023-02-17T10:41:04;101857.59;;;11.11;100.00
71970;BME280;59838;52.152;5.436;2023-02-17T10:43:34;101856.13;;;11.08;100.00
71970;BME280;59838;52.152;5.436;2023-02-17T10:46:04;101845.75;;;11.08;100.00
71970;BME280;59838;52.152;5.436;2023-02-17T10:48:33;101864.59;;;11.10;100.00
71970;BME280;59838;52.152;5.436;2023-02-17T10:51:03;101889.94;;;11.08;100.00
71970;BME280;59838;52.152;5.436;2023-02-17T10:53:36;101901.16;;;11.09;100.00
71970;BME280;59838;52.152;5.436;2023-02-17T10:56:23;101880.50;;;11.07;100.00
71970;BME280;59838;52.152;5.436;2023-02-17T10:58:55;101878.91;;;11.06;100.00
71970;BME280;59838;52.152;5.436;2023-02-17T11:01:23;101890.91;;;11.07;100.00
71970;BME280;59838;52.152;5.436;2023-02-17T11:04:08;101886.03;;;11.12;100.00
71970;BME280;59838;52.152;5.436;2023-02-17T11:06:49;101896.13;;;11.15;100.00
71970;BME280;59838;52.152;5.436;2023-02-17T11:09:18;101889.00;;;11.26;100.00
71970;BME280;59838;52.152;5.436;2023-02-17T11:11:56;101876.66;;;11.28;100.00
71970;BME280;59838;52.152;5.436;2023-02-17T11:14:27;101890.47;;;11.28;100.00
71970;BME280;59838;52.152;5.436;2023-02-17T11:16:58;101897.47;;;11.28;100.00
71970;BME280;59838;52.152;5.436;2023-02-17T11:19:34;101926.38;;;11.25;100.00
71970;BME280;59838;52.152;5.436;2023-02-17T11:22:03;101929.94;;;11.24;100.00
71970;BME280;59838;52.152;5.436;2023-02-17T11:24:32;101911.56;;;11.17;100.00
71970;BME280;59838;52.152;5.436;2023-02-17T11:27:02;101877.13;;;11.15;100.00
71970;BME280;59838;52.152;5.436;2023-02-17T11:29:29;101920.84;;;11.11;100.00
71970;BME280;59838;52.152;5.436;2023-02-17T11:32:05;101921.97;;;11.09;100.00
71970;BME280;59838;52.152;5.436;2023-02-17T11:34:37;101925.22;;;11.11;100.00
71970;BME280;59838;52.152;5.436;2023-02-17T11:37:20;101934.81;;;11.10;100.00
71970;BME280;59838;52.152;5.436;2023-02-17T11:39:48;101918.56;;;11.08;100.00
71970;BME280;59838;52.152;5.436;2023-02-17T11:42:20;101936.91;;;11.07;100.00
71970;BME280;59838;52.152;5.436;2023-02-17T11:44:48;101922.13;;;11.07;100.00
71970;BME280;59838;52.152;5.436;2023-02-17T11:53:34;101932.84;;;11.04;100.00
71970;BME280;59838;52.152;5.436;2023-02-17T11:56:16;101933.50;;;11.06;100.00
71970;BME280;59838;52.152;5.436;2023-02-17T11:58:47;101930.06;;;11.06;100.00
71970;BME280;59838;52.152;5.436;2023-02-17T12:01:57;101940.94;;;11.01;100.00
71970;BME280;59838;52.152;5.436;2023-02-17T12:04:32;101953.94;;;11.01;100.00
71970;BME280;59838;52.152;5.436;2023-02-17T12:09:26;101953.13;;;10.92;100.00
71970;BME280;59838;52.152;5.436;2023-02-17T12:20:00;101957.81;;;10.89;100.00
71970;BME280;59838;52.152;5.436;2023-02-17T12:22:41;101972.75;;;10.87;100.00
71970;BME280;59838;52.152;5.436;2023-02-17T12:31:03;101967.88;;;10.84;100.00
71970;BME280;59838;52.152;5.436;2023-02-17T12:36:10;101980.88;;;10.84;100.00
71970;BME280;59838;52.152;5.436;2023-02-17T12:38:55;101982.94;;;10.80;100.00
71970;BME280;59838;52.152;5.436;2023-02-17T12:41:34;101978.06;;;10.77;100.00
71970;BME280;59838;52.152;5.436;2023-02-17T12:44:03;101998.19;;;10.75;100.00
71970;BME280;59838;52.152;5.436;2023-02-17T12:46:43;102002.59;;;10.74;100.00
71970;BME280;59838;52.152;5.436;2023-02-17T12:49:18;102006.16;;;10.73;100.00
71970;BME280;59838;52.152;5.436;2023-02-17T12:51:53;102001.94;;;10.72;100.00
71970;BME280;59838;52.152;5.436;2023-02-17T12:54:38;102000.31;;;10.71;100.00
71970;BME280;59838;52.152;5.436;2023-02-17T12:57:13;102001.41;;;10.69;100.00
71970;BME280;59838;52.152;5.436;2023-02-17T12:59:46;102010.19;;;10.68;100.00
71970;BME280;59838;52.152;5.436;2023-02-17T13:02:15;102005.81;;;10.68;100.00
71970;BME280;59838;52.152;5.436;2023-02-17T13:04:44;102009.66;;;10.64;100.00
71970;BME280;59838;52.152;5.436;2023-02-17T13:09:57;101990.25;;;10.76;100.00
71970;BME280;59838;52.152;5.436;2023-02-17T13:17:30;101994.56;;;10.94;100.00
71970;BME280;59838;52.152;5.436;2023-02-17T13:20:22;101985.84;;;11.03;100.00
71970;BME280;59838;52.152;5.436;2023-02-17T13:22:50;101992.66;;;11.12;100.00
71970;BME280;59838;52.152;5.436;2023-02-17T13:25:33;101989.59;;;11.17;100.00
71970;BME280;59838;52.152;5.436;2023-02-17T13:28:31;101984.88;;;11.21;100.00
71970;BME280;59838;52.152;5.436;2023-02-17T13:31:11;101981.00;;;11.25;100.00
71970;BME280;59838;52.152;5.436;2023-02-17T13:33:42;101991.91;;;11.28;100.00
71970;BME280;59838;52.152;5.436;2023-02-17T13:41:47;101977.47;;;11.34;99.67
71970;BME280;59838;52.152;5.436;2023-02-17T13:44:27;101978.28;;;11.34;99.63
71970;BME280;59838;52.152;5.436;2023-02-17T13:47:14;101981.69;;;11.35;99.54
71970;BME280;59838;52.152;5.436;2023-02-17T13:49:51;101991.94;;;11.37;98.67
71970;BME280;59838;52.152;5.436;2023-02-17T13:52:23;101984.63;;;11.40;98.85
71970;BME280;59838;52.152;5.436;2023-02-17T13:54:55;101988.53;;;11.44;98.67
71970;BME280;59838;52.152;5.436;2023-02-17T14:00:49;101975.53;;;11.52;98.01
71970;BME280;59838;52.152;5.436;2023-02-17T14:02:52;101994.25;;;11.56;98.02
71970;BME280;59838;52.152;5.436;2023-02-17T14:05:26;101975.88;;;11.58;97.62
71970;BME280;59838;52.152;5.436;2023-02-17T14:07:58;101985.63;;;11.56;97.16
71970;BME280;59838;52.152;5.436;2023-02-17T14:10:28;101986.44;;;11.56;96.45
71970;BME280;59838;52.152;5.436;2023-02-17T14:12:55;101990.19;;;11.62;96.06
71970;BME280;59838;52.152;5.436;2023-02-17T14:15:25;101978.16;;;11.69;96.23
71970;BME280;59838;52.152;5.436;2023-02-17T14:17:53;101970.03;;;11.72;95.40
71970;BME280;59838;52.152;5.436;2023-02-17T14:23:08;101973.97;;;11.93;95.75
71970;BME280;59838;52.152;5.436;2023-02-17T14:25:39;101991.25;;;12.02;95.52
71970;BME280;59838;52.152;5.436;2023-02-17T14:28:24;101990.91;;;12.13;95.46
71970;BME280;59838;52.152;5.436;2023-02-17T14:30:53;101981.44;;;12.20;94.89